sensor_id;sensor_type;location;lat;lon;timestamp;pressure;altitude;pressure_sealevel;temperature;humidity
70976;BME280;58635;51.198;6.010;2023-04-15T00:01:23;100568.34;;;12.84;45.49
70976;BME280;58635;51.198;6.010;2023-04-15T00:03:53;100571.38;;;12.81;45.55
70976;BME280;58635;51.198;6.010;2023-04-15T00:06:20;100571.78;;;12.78;45.71
70976;BME280;58635;51.198;6.010;2023-04-15T00:08:46;100568.03;;;12.74;45.81
70976;BME280;58635;51.198;6.010;2023-04-15T00:11:12;100571.06;;;12.71;45.67
70976;BME280;58635;51.198;6.010;2023-04-15T00:13:38;100570.69;;;12.67;45.78
70976;BME280;58635;51.198;6.010;2023-04-15T00:16:05;100570.09;;;12.65;45.92
70976;BME280;58635;51.198;6.010;2023-04-15T00:18:31;100562.72;;;12.62;45.78
70976;BME280;58635;51.198;6.010;2023-04-15T00:20:57;100560.56;;;12.59;45.74
70976;BME280;58635;51.198;6.010;2023-04-15T00:23:23;100559.19;;;12.56;45.91
70976;BME280;58635;51.198;6.010;2023-04-15T00:25:48;100556.81;;;12.55;46.00
70976;BME280;58635;51.198;6.010;2023-04-15T00:28:14;100558.00;;;12.52;46.08
70976;BME280;58635;51.198;6.010;2023-04-15T00:30:39;100552.25;;;12.50;46.05
70976;BME280;58635;51.198;6.010;2023-04-15T00:33:04;100552.69;;;12.47;46.21
70976;BME280;58635;51.198;6.010;2023-04-15T00:35:30;100558.88;;;12.46;46.19
70976;BME280;58635;51.198;6.010;2023-04-15T00:37:57;100548.72;;;12.45;46.44
70976;BME280;58635;51.198;6.010;2023-04-15T00:40:23;100555.88;;;12.43;46.52
70976;BME280;58635;51.198;6.010;2023-04-15T00:42:49;100561.50;;;12.40;46.43
70976;BME280;58635;51.198;6.010;2023-04-15T00:45:14;100557.75;;;12.36;46.63
70976;BME280;58635;51.198;6.010;2023-04-15T00:47:42;100551.97;;;12.34;46.71
70976;BME280;58635;51.198;6.010;2023-04-15T00:50:09;100553.38;;;12.29;46.84
70976;BME280;58635;51.198;6.010;2023-04-15T00:52:34;100552.00;;;12.27;46.85
70976;BME280;58635;51.198;6.010;2023-04-15T00:55:00;100555.03;;;12.24;46.69
70976;BME280;58635;51.198;6.010;2023-04-15T00:57:27;100570.00;;;12.22;46.92
70976;BME280;58635;51.198;6.010;2023-04-15T00:59:54;100572.41;;;12.17;47.00
70976;BME280;58635;51.198;6.010;2023-04-15T01:02:20;100566.06;;;12.13;47.09
70976;BME280;58635;51.198;6.010;2023-04-15T01:04:46;100563.47;;;12.13;47.03
70976;BME280;58635;51.198;6.010;2023-04-15T01:07:11;100568.09;;;12.11;47.07
70976;BME280;58635;51.198;6.010;2023-04-15T01:09:37;100569.28;;;12.08;46.80
70976;BME280;58635;51.198;6.010;2023-04-15T01:12:03;100564.50;;;12.05;46.90
70976;BME280;58635;51.198;6.010;2023-04-15T01:14:29;100562.34;;;12.02;47.20
70976;BME280;58635;51.198;6.010;2023-04-15T01:16:55;100560.75;;;12.01;47.21
70976;BME280;58635;51.198;6.010;2023-04-15T01:19:21;100560.38;;;11.97;47.02
70976;BME280;58635;51.198;6.010;2023-04-15T01:21:47;100558.19;;;11.94;47.40
70976;BME280;58635;51.198;6.010;2023-04-15T01:24:14;100557.59;;;11.92;47.50
70976;BME280;58635;51.198;6.010;2023-04-15T01:26:42;100559.59;;;11.90;47.55
70976;BME280;58635;51.198;6.010;2023-04-15T01:29:07;100557.44;;;11.87;47.65
70976;BME280;58635;51.198;6.010;2023-04-15T01:31:33;100556.06;;;11.85;47.82
70976;BME280;58635;51.198;6.010;2023-04-15T01:33:58;100559.84;;;11.82;47.87
70976;BME280;58635;51.198;6.010;2023-04-15T01:36:24;100555.06;;;11.79;47.88
70976;BME280;58635;51.198;6.010;2023-04-15T01:38:49;100561.44;;;11.77;47.86
70976;BME280;58635;51.198;6.010;2023-04-15T01:41:15;100561.06;;;11.73;47.71
70976;BME280;58635;51.198;6.010;2023-04-15T01:43:41;100561.44;;;11.70;48.14
70976;BME280;58635;51.198;6.010;2023-04-15T01:46:06;100555.09;;;11.66;48.29
70976;BME280;58635;51.198;6.010;2023-04-15T01:48:32;100554.53;;;11.64;48.37
70976;BME280;58635;51.198;6.010;2023-04-15T01:50:58;100556.53;;;11.62;48.34
70976;BME280;58635;51.198;6.010;2023-04-15T01:53:24;100560.50;;;11.58;48.64
70976;BME280;58635;51.198;6.010;2023-04-15T01:55:50;100564.31;;;11.55;48.44
70976;BME280;58635;51.198;6.010;2023-04-15T01:58:19;100565.53;;;11.53;48.56
70976;BME280;58635;51.198;6.010;2023-04-15T02:00:44;100564.13;;;11.50;48.35
70976;BME280;58635;51.198;6.010;2023-04-15T02:03:10;100561.75;;;11.49;48.53
70976;BME280;58635;51.198;6.010;2023-04-15T02:05:35;100564.53;;;11.47;48.64
70976;BME280;58635;51.198;6.010;2023-04-15T02:08:01;100560.56;;;11.45;48.51
70976;BME280;58635;51.198;6.010;2023-04-15T02:10:26;100555.78;;;11.41;48.81
70976;BME280;58635;51.198;6.010;2023-04-15T02:12:52;100565.34;;;11.41;48.54
70976;BME280;58635;51.198;6.010;2023-04-15T02:15:18;100562.38;;;11.37;48.64
70976;BME280;58635;51.198;6.010;2023-04-15T02:17:44;100562.38;;;11.37;48.43
70976;BME280;58635;51.198;6.010;2023-04-15T02:20:15;100564.56;;;11.34;48.60
70976;BME280;58635;51.198;6.010;2023-04-15T02:22:40;100566.34;;;11.33;48.69
70976;BME280;58635;51.198;6.010;2023-04-15T02:25:07;100557.22;;;11.31;48.64
70976;BME280;58635;51.198;6.010;2023-04-15T02:27:32;100555.41;;;11.31;48.62
70976;BME280;58635;51.198;6.010;2023-04-15T02:29:58;100566.78;;;11.30;48.62
70976;BME280;58635;51.198;6.010;2023-04-15T02:32:23;100559.81;;;11.31;48.67
70976;BME280;58635;51.198;6.010;2023-04-15T02:34:48;100566.78;;;11.30;48.71
70976;BME280;58635;51.198;6.010;2023-04-15T02:37:15;100566.78;;;11.30;48.55
70976;BME280;58635;51.198;6.010;2023-04-15T02:39:41;100571.38;;;11.28;48.58
70976;BME280;58635;51.198;6.010;2023-04-15T02:42:06;100576.53;;;11.28;48.66
70976;BME280;58635;51.198;6.010;2023-04-15T02:44:32;100584.50;;;11.27;48.65
70976;BME280;58635;51.198;6.010;2023-04-15T02:46:59;100577.75;;;11.26;48.74
70976;BME280;58635;51.198;6.010;2023-04-15T02:49:25;100583.31;;;11.23;48.70
70976;BME280;58635;51.198;6.010;2023-04-15T02:51:50;100585.50;;;11.19;48.77
70976;BME280;58635;51.198;6.010;2023-04-15T02:54:17;100595.28;;;11.17;48.96
70976;BME280;58635;51.198;6.010;2023-04-15T02:56:42;100594.69;;;11.15;48.73
70976;BME280;58635;51.198;6.010;2023-04-15T02:59:07;100589.91;;;11.12;48.62
70976;BME280;58635;51.198;6.010;2023-04-15T03:01:33;100582.13;;;11.12;49.00
70976;BME280;58635;51.198;6.010;2023-04-15T03:03:58;100600.25;;;11.12;48.92
70976;BME280;58635;51.198;6.010;2023-04-15T03:06:24;100591.50;;;11.13;49.07
70976;BME280;58635;51.198;6.010;2023-04-15T03:08:49;100589.91;;;11.12;48.92
70976;BME280;58635;51.198;6.010;2023-04-15T03:11:15;100593.69;;;11.09;48.96
70976;BME280;58635;51.198;6.010;2023-04-15T03:13:41;100587.13;;;11.07;48.84
70976;BME280;58635;51.198;6.010;2023-04-15T03:16:08;100591.72;;;11.05;48.86
70976;BME280;58635;51.198;6.010;2023-04-15T03:18:33;100592.13;;;11.02;48.98
70976;BME280;58635;51.198;6.010;2023-04-15T03:20:59;100583.72;;;11.00;48.99
70976;BME280;58635;51.198;6.010;2023-04-15T03:23:24;100585.72;;;10.98;48.97
70976;BME280;58635;51.198;6.010;2023-04-15T03:25:50;100587.53;;;10.97;48.95
70976;BME280;58635;51.198;6.010;2023-04-15T03:28:15;100591.31;;;10.95;48.99
70976;BME280;58635;51.198;6.010;2023-04-15T03:30:41;100585.34;;;10.94;49.27
70976;BME280;58635;51.198;6.010;2023-04-15T03:33:06;100593.53;;;10.91;49.11
70976;BME280;58635;51.198;6.010;2023-04-15T03:35:33;100599.47;;;10.92;49.13
70976;BME280;58635;51.198;6.010;2023-04-15T03:37:58;100598.06;;;10.89;49.08
70976;BME280;58635;51.198;6.010;2023-04-15T03:40:24;100602.44;;;10.89;49.22
70976;BME280;58635;51.198;6.010;2023-04-15T03:42:49;100602.66;;;10.87;49.06
70976;BME280;58635;51.198;6.010;2023-04-15T03:45:15;100599.69;;;10.83;49.18
70976;BME280;58635;51.198;6.010;2023-04-15T03:47:40;100598.88;;;10.83;48.86
70976;BME280;58635;51.198;6.010;2023-04-15T03:50:06;100599.09;;;10.81;49.19
70976;BME280;58635;51.198;6.010;2023-04-15T03:52:32;100606.06;;;10.81;49.13
70976;BME280;58635;51.198;6.010;2023-04-15T03:54:58;100609.84;;;10.78;49.14
70976;BME280;58635;51.198;6.010;2023-04-15T03:57:23;100615.19;;;10.77;49.27
70976;BME280;58635;51.198;6.010;2023-04-15T03:59:48;100611.22;;;10.74;49.34
70976;BME280;58635;51.198;6.010;2023-04-15T04:02:14;100618.38;;;10.72;49.09
70976;BME280;58635;51.198;6.010;2023-04-15T04:04:39;100612.81;;;10.69;49.29
70976;BME280;58635;51.198;6.010;2023-04-15T04:07:07;100614.81;;;10.67;49.23
70976;BME280;58635;51.198;6.010;2023-04-15T04:09:32;100619.34;;;10.65;49.32
70976;BME280;58635;51.198;6.010;2023-04-15T04:11:58;100617.16;;;10.62;49.42
70976;BME280;58635;51.198;6.010;2023-04-15T04:14:23;100629.50;;;10.60;49.44
70976;BME280;58635;51.198;6.010;2023-04-15T04:16:53;100633.28;;;10.57;49.65
70976;BME280;58635;51.198;6.010;2023-04-15T04:19:19;100644.81;;;10.54;49.52
70976;BME280;58635;51.198;6.010;2023-04-15T04:21:44;100646.00;;;10.52;49.65
70976;BME280;58635;51.198;6.010;2023-04-15T04:24:11;100647.00;;;10.51;49.71
70976;BME280;58635;51.198;6.010;2023-04-15T04:26:36;100642.59;;;10.51;49.88
70976;BME280;58635;51.198;6.010;2023-04-15T04:29:01;100647.00;;;10.51;49.95
70976;BME280;58635;51.198;6.010;2023-04-15T04:31:27;100650.56;;;10.50;49.96
70976;BME280;58635;51.198;6.010;2023-04-15T04:33:52;100652.34;;;10.49;50.06
70976;BME280;58635;51.198;6.010;2023-04-15T04:36:18;100658.31;;;10.50;50.25
70976;BME280;58635;51.198;6.010;2023-04-15T04:38:43;100661.72;;;10.50;50.41
70976;BME280;58635;51.198;6.010;2023-04-15T04:41:08;100659.53;;;10.47;50.56
70976;BME280;58635;51.198;6.010;2023-04-15T04:43:34;100667.47;;;10.46;50.54
70976;BME280;58635;51.198;6.010;2023-04-15T04:45:59;100666.69;;;10.45;50.40
70976;BME280;58635;51.198;6.010;2023-04-15T04:48:25;100671.06;;;10.45;50.74
70976;BME280;58635;51.198;6.010;2023-04-15T04:50:51;100677.22;;;10.44;50.86
70976;BME280;58635;51.198;6.010;2023-04-15T04:53:17;100677.22;;;10.44;50.87
70976;BME280;58635;51.198;6.010;2023-04-15T04:55:42;100676.44;;;10.43;51.05
70976;BME280;58635;51.198;6.010;2023-04-15T04:58:08;100685.34;;;10.41;50.97
70976;BME280;58635;51.198;6.010;2023-04-15T05:00:33;100694.09;;;10.40;51.06
70976;BME280;58635;51.198;6.010;2023-04-15T05:02:59;100685.94;;;10.36;51.01
70976;BME280;58635;51.198;6.010;2023-04-15T05:05:24;100690.31;;;10.36;51.45
70976;BME280;58635;51.198;6.010;2023-04-15T05:07:50;100695.47;;;10.36;51.47
70976;BME280;58635;51.198;6.010;2023-04-15T05:10:15;100698.47;;;10.33;51.83
70976;BME280;58635;51.198;6.010;2023-04-15T05:12:42;100701.84;;;10.33;51.85
70976;BME280;58635;51.198;6.010;2023-04-15T05:15:08;100700.25;;;10.32;51.85
70976;BME280;58635;51.198;6.010;2023-04-15T05:17:33;100706.81;;;10.35;51.95
70976;BME280;58635;51.198;6.010;2023-04-15T05:20:00;100710.81;;;10.37;51.96
70976;BME280;58635;51.198;6.010;2023-04-15T05:22:26;100719.75;;;10.41;52.00
70976;BME280;58635;51.198;6.010;2023-04-15T05:24:51;100718.41;;;10.45;52.04
70976;BME280;58635;51.198;6.010;2023-04-15T05:27:16;100718.00;;;10.48;52.10
70976;BME280;58635;51.198;6.010;2023-04-15T05:29:43;100725.97;;;10.53;52.24
70976;BME280;58635;51.198;6.010;2023-04-15T05:32:08;100721.03;;;10.59;52.29
70976;BME280;58635;51.198;6.010;2023-04-15T05:34:34;100724.59;;;10.64;52.04
70976;BME280;58635;51.198;6.010;2023-04-15T05:36:59;100724.25;;;10.74;52.03
70976;BME280;58635;51.198;6.010;2023-04-15T05:39:25;100736.00;;;10.83;51.93
70976;BME280;58635;51.198;6.010;2023-04-15T05:41:50;100729.47;;;10.94;51.87
70976;BME280;58635;51.198;6.010;2023-04-15T05:44:16;100739.84;;;11.07;51.64
70976;BME280;58635;51.198;6.010;2023-04-15T05:46:41;100734.06;;;11.18;51.66
70976;BME280;58635;51.198;6.010;2023-04-15T05:49:07;100742.25;;;11.28;51.57
70976;BME280;58635;51.198;6.010;2023-04-15T05:51:33;100740.25;;;11.37;51.43
70976;BME280;58635;51.198;6.010;2023-04-15T05:53:58;100753.78;;;11.46;51.50
70976;BME280;58635;51.198;6.010;2023-04-15T05:56:23;100753.41;;;11.49;51.40
70976;BME280;58635;51.198;6.010;2023-04-15T05:58:51;100756.38;;;11.52;51.30
70976;BME280;58635;51.198;6.010;2023-04-15T06:01:16;100751.00;;;11.54;51.32
70976;BME280;58635;51.198;6.010;2023-04-15T06:03:42;100763.75;;;11.55;51.16
70976;BME280;58635;51.198;6.010;2023-04-15T06:06:07;100766.94;;;11.57;51.13
70976;BME280;58635;51.198;6.010;2023-04-15T06:08:33;100772.72;;;11.59;51.05
70976;BME280;58635;51.198;6.010;2023-04-15T06:10:59;100774.13;;;11.62;51.04
70976;BME280;58635;51.198;6.010;2023-04-15T06:13:25;100781.50;;;11.65;50.71
70976;BME280;58635;51.198;6.010;2023-04-15T06:15:51;100783.25;;;11.71;50.97
70976;BME280;58635;51.198;6.010;2023-04-15T06:18:17;100784.47;;;11.75;51.06
70976;BME280;58635;51.198;6.010;2023-04-15T06:20:43;100798.44;;;11.81;51.08
70976;BME280;58635;51.198;6.010;2023-04-15T06:23:08;100794.28;;;11.86;50.87
70976;BME280;58635;51.198;6.010;2023-04-15T06:25:33;100798.63;;;11.92;50.78
70976;BME280;58635;51.198;6.010;2023-04-15T06:27:59;100810.59;;;12.00;50.96
70976;BME280;58635;51.198;6.010;2023-04-15T06:30:25;100807.00;;;12.08;50.82
70976;BME280;58635;51.198;6.010;2023-04-15T06:32:50;100813.53;;;12.17;50.77
70976;BME280;58635;51.198;6.010;2023-04-15T06:35:16;100815.94;;;12.25;50.56
70976;BME280;58635;51.198;6.010;2023-04-15T06:37:41;100814.31;;;12.37;50.59
70976;BME280;58635;51.198;6.010;2023-04-15T06:40:07;100821.66;;;12.47;50.57
70976;BME280;58635;51.198;6.010;2023-04-15T06:42:34;100829.03;;;12.56;50.55
70976;BME280;58635;51.198;6.010;2023-04-15T06:45:01;100832.16;;;12.65;50.27
70976;BME280;58635;51.198;6.010;2023-04-15T06:47:26;100839.31;;;12.76;50.26
70976;BME280;58635;51.198;6.010;2023-04-15T06:49:52;100839.88;;;12.85;49.92
70976;BME280;58635;51.198;6.010;2023-04-15T06:52:17;100843.63;;;12.96;49.97
70976;BME280;58635;51.198;6.010;2023-04-15T06:54:42;100846.94;;;13.09;49.97
70976;BME280;58635;51.198;6.010;2023-04-15T06:57:08;100852.53;;;13.20;49.65
70976;BME280;58635;51.198;6.010;2023-04-15T06:59:34;100860.66;;;13.30;49.56
70976;BME280;58635;51.198;6.010;2023-04-15T07:01:59;100852.63;;;13.38;49.66
70976;BME280;58635;51.198;6.010;2023-04-15T07:04:25;100860.94;;;13.46;49.45
70976;BME280;58635;51.198;6.010;2023-04-15T07:06:50;100857.88;;;13.56;49.72
70976;BME280;58635;51.198;6.010;2023-04-15T07:09:15;100871.22;;;13.66;49.65
70976;BME280;58635;51.198;6.010;2023-04-15T07:11:41;100868.19;;;13.69;49.73
70976;BME280;58635;51.198;6.010;2023-04-15T07:14:06;100877.97;;;13.74;49.90
70976;BME280;58635;51.198;6.010;2023-04-15T07:16:31;100880.06;;;13.84;49.75
70976;BME280;58635;51.198;6.010;2023-04-15T07:18:57;100885.97;;;13.97;49.73
70976;BME280;58635;51.198;6.010;2023-04-15T07:21:23;100891.09;;;14.04;49.39
70976;BME280;58635;51.198;6.010;2023-04-15T07:23:48;100896.75;;;14.01;49.55
70976;BME280;58635;51.198;6.010;2023-04-15T07:26:14;100898.34;;;14.02;49.63
70976;BME280;58635;51.198;6.010;2023-04-15T07:28:39;100908.31;;;14.05;49.39
70976;BME280;58635;51.198;6.010;2023-04-15T07:31:05;100904.09;;;14.04;49.47
70976;BME280;58635;51.198;6.010;2023-04-15T07:33:31;100913.28;;;14.07;49.59
70976;BME280;58635;51.198;6.010;2023-04-15T07:35:56;100913.69;;;14.10;49.32
70976;BME280;58635;51.198;6.010;2023-04-15T07:38:22;100922.06;;;14.12;49.31
70976;BME280;58635;51.198;6.010;2023-04-15T07:40:47;100921.19;;;14.18;49.33
70976;BME280;58635;51.198;6.010;2023-04-15T07:43:14;100927.78;;;14.21;49.51
70976;BME280;58635;51.198;6.010;2023-04-15T07:45:39;100927.38;;;14.24;49.48
70976;BME280;58635;51.198;6.010;2023-04-15T07:48:05;100933.09;;;14.32;49.39
70976;BME280;58635;51.198;6.010;2023-04-15T07:50:30;100939.25;;;14.38;49.28
70976;BME280;58635;51.198;6.010;2023-04-15T07:52:56;100947.97;;;14.44;49.27
70976;BME280;58635;51.198;6.010;2023-04-15T07:55:22;100941.16;;;14.49;49.07
70976;BME280;58635;51.198;6.010;2023-04-15T07:57:48;100948.75;;;14.51;48.92
70976;BME280;58635;51.198;6.010;2023-04-15T08:00:14;100948.63;;;14.46;48.84
70976;BME280;58635;51.198;6.010;2023-04-15T08:02:40;100954.41;;;14.41;48.85
70976;BME280;58635;51.198;6.010;2023-04-15T08:05:07;100957.22;;;14.40;49.06
70976;BME280;58635;51.198;6.010;2023-04-15T08:07:33;100964.41;;;14.44;48.96
70976;BME280;58635;51.198;6.010;2023-04-15T08:09:58;100963.00;;;14.48;48.64
70976;BME280;58635;51.198;6.010;2023-04-15T08:12:24;100967.56;;;14.53;48.45
70976;BME280;58635;51.198;6.010;2023-04-15T08:14:50;100972.94;;;14.58;48.26
70976;BME280;58635;51.198;6.010;2023-04-15T08:17:16;100980.09;;;14.62;48.14
70976;BME280;58635;51.198;6.010;2023-04-15T08:19:41;100975.22;;;14.66;48.23
70976;BME280;58635;51.198;6.010;2023-04-15T08:22:07;100973.38;;;14.73;48.08
70976;BME280;58635;51.198;6.010;2023-04-15T08:24:33;100974.13;;;14.80;48.06
70976;BME280;58635;51.198;6.010;2023-04-15T08:26:58;100974.75;;;14.94;47.87
70976;BME280;58635;51.198;6.010;2023-04-15T08:29:24;100970.63;;;15.05;47.60
70976;BME280;58635;51.198;6.010;2023-04-15T08:31:49;100980.09;;;15.17;47.31
70976;BME280;58635;51.198;6.010;2023-04-15T08:34:15;100974.97;;;15.29;46.91
70976;BME280;58635;51.198;6.010;2023-04-15T08:36:41;100977.63;;;15.41;46.80
70976;BME280;58635;51.198;6.010;2023-04-15T08:39:07;100982.09;;;15.52;46.60
70976;BME280;58635;51.198;6.010;2023-04-15T08:41:46;100985.34;;;15.66;46.01
70976;BME280;58635;51.198;6.010;2023-04-15T08:44:13;100983.06;;;15.69;45.92
70976;BME280;58635;51.198;6.010;2023-04-15T08:46:40;100998.19;;;15.79;45.71
70976;BME280;58635;51.198;6.010;2023-04-15T08:49:09;100998.44;;;15.89;45.34
70976;BME280;58635;51.198;6.010;2023-04-15T08:51:36;101006.16;;;15.96;45.17
70976;BME280;58635;51.198;6.010;2023-04-15T08:54:03;101003.69;;;16.01;44.77
70976;BME280;58635;51.198;6.010;2023-04-15T08:56:30;101013.22;;;16.07;44.69
70976;BME280;58635;51.198;6.010;2023-04-15T08:58:59;101009.38;;;16.09;44.75
70976;BME280;58635;51.198;6.010;2023-04-15T09:01:24;101009.97;;;16.12;44.46
70976;BME280;58635;51.198;6.010;2023-04-15T09:03:51;101015.59;;;16.08;44.46
70976;BME280;58635;51.198;6.010;2023-04-15T09:06:19;101012.34;;;16.13;44.49
70976;BME280;58635;51.198;6.010;2023-04-15T09:08:45;101019.16;;;16.14;44.01
70976;BME280;58635;51.198;6.010;2023-04-15T09:11:10;101029.94;;;16.18;44.23
70976;BME280;58635;51.198;6.010;2023-04-15T09:13:36;101026.66;;;16.22;44.06
70976;BME280;58635;51.198;6.010;2023-04-15T09:16:04;101032.91;;;16.33;43.82
70976;BME280;58635;51.198;6.010;2023-04-15T09:18:32;101034.72;;;16.44;43.06
70976;BME280;58635;51.198;6.010;2023-04-15T09:21:09;101032.59;;;16.53;42.47
70976;BME280;58635;51.198;6.010;2023-04-15T09:24:00;101035.34;;;16.58;42.68
70976;BME280;58635;51.198;6.010;2023-04-15T09:26:43;101037.03;;;16.64;42.78
70976;BME280;58635;51.198;6.010;2023-04-15T09:29:10;101037.50;;;16.73;42.45
70976;BME280;58635;51.198;6.010;2023-04-15T09:31:40;101048.84;;;16.78;42.08
70976;BME280;58635;51.198;6.010;2023-04-15T09:34:06;101053.75;;;16.75;42.08
70976;BME280;58635;51.198;6.010;2023-04-15T09:36:51;101060.09;;;16.79;41.18
70976;BME280;58635;51.198;6.010;2023-04-15T09:39:17;101067.72;;;16.80;40.58
70976;BME280;58635;51.198;6.010;2023-04-15T09:41:42;101065.78;;;16.76;40.83
70976;BME280;58635;51.198;6.010;2023-04-15T09:44:25;101066.91;;;16.80;40.95
70976;BME280;58635;51.198;6.010;2023-04-15T09:46:51;101074.31;;;16.83;41.09
70976;BME280;58635;51.198;6.010;2023-04-15T09:49:16;101077.03;;;16.88;40.79
70976;BME280;58635;51.198;6.010;2023-04-15T09:51:42;101081.13;;;16.95;40.93
70976;BME280;58635;51.198;6.010;2023-04-15T09:54:08;101078.38;;;17.02;40.72
70976;BME280;58635;51.198;6.010;2023-04-15T09:56:35;101081.00;;;17.14;40.69
70976;BME280;58635;51.198;6.010;2023-04-15T09:59:09;101082.00;;;17.24;40.61
70976;BME280;58635;51.198;6.010;2023-04-15T10:01:35;101079.28;;;17.31;40.37
70976;BME280;58635;51.198;6.010;2023-04-15T10:04:04;101089.47;;;17.44;40.09
70976;BME280;58635;51.198;6.010;2023-04-15T10:06:30;101092.63;;;17.58;39.68
70976;BME280;58635;51.198;6.010;2023-04-15T10:08:58;101087.59;;;17.68;39.13
70976;BME280;58635;51.198;6.010;2023-04-15T10:11:27;101089.41;;;17.79;38.90
70976;BME280;58635;51.198;6.010;2023-04-15T10:13:54;101092.44;;;17.88;39.00
70976;BME280;58635;51.198;6.010;2023-04-15T10:16:20;101101.16;;;17.94;38.83
70976;BME280;58635;51.198;6.010;2023-04-15T10:18:53;101102.28;;;17.98;38.79
70976;BME280;58635;51.198;6.010;2023-04-15T10:21:19;101101.97;;;17.94;39.11
70976;BME280;58635;51.198;6.010;2023-04-15T10:23:47;101115.53;;;17.91;38.93
70976;BME280;58635;51.198;6.010;2023-04-15T10:26:12;101112.34;;;17.89;39.01
70976;BME280;58635;51.198;6.010;2023-04-15T10:28:42;101105.38;;;17.95;39.09
70976;BME280;58635;51.198;6.010;2023-04-15T10:31:11;101119.75;;;18.09;38.75
70976;BME280;58635;51.198;6.010;2023-04-15T10:33:37;101115.84;;;18.23;38.43
70976;BME280;58635;51.198;6.010;2023-04-15T10:36:04;101113.47;;;18.38;38.95
70976;BME280;58635;51.198;6.010;2023-04-15T10:38:41;101116.66;;;18.57;38.34
70976;BME280;58635;51.198;6.010;2023-04-15T10:41:22;101123.91;;;18.67;38.18
70976;BME280;58635;51.198;6.010;2023-04-15T10:44:03;101120.81;;;18.70;38.13
70976;BME280;58635;51.198;6.010;2023-04-15T10:46:37;101130.72;;;18.68;38.03
70976;BME280;58635;51.198;6.010;2023-04-15T10:49:13;101126.28;;;18.68;38.13
70976;BME280;58635;51.198;6.010;2023-04-15T10:51:41;101131.78;;;18.67;38.00
70976;BME280;58635;51.198;6.010;2023-04-15T10:54:30;101141.81;;;18.58;38.27
70976;BME280;58635;51.198;6.010;2023-04-15T10:59:28;101139.19;;;18.58;37.95
70976;BME280;58635;51.198;6.010;2023-04-15T11:02:01;101143.09;;;18.56;38.17
70976;BME280;58635;51.198;6.010;2023-04-15T11:04:52;101143.81;;;18.51;38.16
70976;BME280;58635;51.198;6.010;2023-04-15T11:07:37;101143.00;;;18.51;38.27
70976;BME280;58635;51.198;6.010;2023-04-15T11:13:01;101154.59;;;18.55;37.74
70976;BME280;58635;51.198;6.010;2023-04-15T11:15:29;101152.53;;;18.57;38.06
70976;BME280;58635;51.198;6.010;2023-04-15T11:23:27;101148.75;;;18.81;38.04
70976;BME280;58635;51.198;6.010;2023-04-15T11:25:57;101155.13;;;18.85;37.91
70976;BME280;58635;51.198;6.010;2023-04-15T11:28:28;101158.59;;;18.91;38.30
70976;BME280;58635;51.198;6.010;2023-04-15T11:30:54;101164.19;;;18.94;37.83
70976;BME280;58635;51.198;6.010;2023-04-15T11:33:21;101161.31;;;18.96;37.75
70976;BME280;58635;51.198;6.010;2023-04-15T11:35:47;101165.53;;;18.97;37.63
70976;BME280;58635;51.198;6.010;2023-04-15T11:38:13;101167.50;;;19.07;37.42
70976;BME280;58635;51.198;6.010;2023-04-15T11:40:40;101160.50;;;19.12;37.62
70976;BME280;58635;51.198;6.010;2023-04-15T11:45:36;101174.44;;;19.35;37.28
70976;BME280;58635;51.198;6.010;2023-04-15T11:48:07;101169.59;;;19.43;37.13
70976;BME280;58635;51.198;6.010;2023-04-15T11:50:33;101170.97;;;19.51;36.45
70976;BME280;58635;51.198;6.010;2023-04-15T11:53:00;101174.81;;;19.60;36.70
70976;BME280;58635;51.198;6.010;2023-04-15T11:55:27;101181.78;;;19.71;36.50
70976;BME280;58635;51.198;6.010;2023-04-15T11:58:14;101180.72;;;19.72;36.46
70976;BME280;58635;51.198;6.010;2023-04-15T12:09:11;101190.13;;;19.51;37.39
70976;BME280;58635;51.198;6.010;2023-04-15T12:11:56;101188.41;;;19.57;37.58
70976;BME280;58635;51.198;6.010;2023-04-15T12:14:30;101200.00;;;19.61;37.19
70976;BME280;58635;51.198;6.010;2023-04-15T12:16:58;101197.09;;;19.58;36.96
70976;BME280;58635;51.198;6.010;2023-04-15T12:19:33;101197.22;;;19.51;37.32
70976;BME280;58635;51.198;6.010;2023-04-15T12:22:01;101200.81;;;19.45;37.06
70976;BME280;58635;51.198;6.010;2023-04-15T12:24:30;101203.59;;;19.38;36.98
70976;BME280;58635;51.198;6.010;2023-04-15T12:26:57;101195.72;;;19.38;37.08
70976;BME280;58635;51.198;6.010;2023-04-15T12:29:27;101210.03;;;19.47;36.99
70976;BME280;58635;51.198;6.010;2023-04-15T12:34:43;101206.34;;;19.65;36.23
70976;BME280;58635;51.198;6.010;2023-04-15T12:37:11;101220.84;;;19.68;36.48
70976;BME280;58635;51.198;6.010;2023-04-15T12:39:39;101218.25;;;19.73;36.54
70976;BME280;58635;51.198;6.010;2023-04-15T12:42:06;101220.22;;;19.82;36.32
70976;BME280;58635;51.198;6.010;2023-04-15T12:44:32;101224.06;;;19.75;35.97
70976;BME280;58635;51.198;6.010;2023-04-15T12:46:58;101224.91;;;19.59;36.28
70976;BME280;58635;51.198;6.010;2023-04-15T12:49:24;101230.53;;;19.50;36.28
70976;BME280;58635;51.198;6.010;2023-04-15T12:51:55;101228.44;;;19.52;36.48
70976;BME280;58635;51.198;6.010;2023-04-15T12:54:21;101239.91;;;19.63;36.18
70976;BME280;58635;51.198;6.010;2023-04-15T12:56:48;101231.88;;;19.70;35.94
70976;BME280;58635;51.198;6.010;2023-04-15T12:59:14;101240.34;;;19.77;35.78
70976;BME280;58635;51.198;6.010;2023-04-15T13:01:41;101256.06;;;19.94;35.67
70976;BME280;58635;51.198;6.010;2023-04-15T13:04:06;101249.78;;;19.95;35.59
70976;BME280;58635;51.198;6.010;2023-04-15T13:06:32;101255.44;;;19.86;35.63
70976;BME280;58635;51.198;6.010;2023-04-15T13:09:00;101267.47;;;19.82;35.51
70976;BME280;58635;51.198;6.010;2023-04-15T13:11:27;101252.94;;;19.75;36.09
70976;BME280;58635;51.198;6.010;2023-04-15T13:13:55;101256.00;;;19.67;36.40